SKBQ/BAQ METAR and TAF weather

Enter ICAO airport designator
Station Type Date Time Source
SKBQ METAR 2021/04/14 20:00 UTC NOAA

SKBQ 142000Z 05011KT 010V070 9999 SCT015TCU SCT070 32/24 Q1007 NOSIG RMK TCU/SE/SW A2976


Station Type Date Time Source
SKBQ Decoded METAR 2021/04/14 20:00 UTC NOAA

Barranquilla / Ernestocortissoz, Colombia (SKBQ) 10-53N 074-47W 30M
Apr 14, 2021 - 04:00 PM EDT / 2021.04.14 2000 UTC
Wind: from the NE (050 degrees) at 13 MPH (11 KT) (direction variable):0
Visibility: greater than 7 mile(s):0
Sky conditions: partly cloudy
Weather: Towering cumulus clouds observed
Temperature: 89 F (32 C)
Heat index: 98.4 F (36.9 C):1
Dew Point: 75 F (24 C)
Relative Humidity: 62%
Pressure (altimeter): 29.74 in. Hg (1007 hPa)
ob: SKBQ 142000Z 05011KT 010V070 9999 SCT015TCU SCT070 32/24 Q1007 NOSIG RMK TCU/SE/SW A2976
cycle: 20

Station Type Date Time Source
SKBQ TAF 2021/04/14 18:49 UTC NOAA

TAF SKBQ 141630Z 1418/1518 03014KT 9999 SCT015
TEMPO 1418/1421 FEW008CB SCT010 BKN070
BECMG 1505/1507 04004KT
TEMPO 1511/1513 5000 TSRA FEW008CB BKN010 TX32/1516Z TN26/1510Z

Example: see airport list